Time;durP1;ratioP1;P1;durP2;ratioP2;P2;SDS_P1;SDS_P2;PMS_P1;PMS_P2;Temp;Humidity;BMP_temperature;BMP_pressure;BME280_temperature;BME280_humidity;BME280_pressure;Samples;Min_cycle;Max_cycle;Signal;HPM_P1;HPM_P2
2023/09/28 00:01:22;;;;;;;5.07;2.53;;;19.30;99.90;;;;;;5012468;28;20072;-83
2023/09/28 00:03:48;;;;;;;3.05;2.25;;;19.30;99.90;;;;;;5006423;28;20061;-84
2023/09/28 00:06:19;;;;;;;5.45;2.97;;;19.30;99.90;;;;;;5028204;28;20026;-84
2023/09/28 00:08:47;;;;;;;4.55;2.47;;;19.30;99.90;;;;;;5008078;28;20025;-84
2023/09/28 00:11:12;;;;;;;5.45;2.42;;;19.30;99.90;;;;;;5030489;28;20052;-82
2023/09/28 00:13:38;;;;;;;3.80;2.35;;;19.30;99.90;;;;;;5004707;28;21703;-84
2023/09/28 00:16:04;;;;;;;9.27;3.22;;;19.30;99.90;;;;;;5010794;28;20025;-83
2023/09/28 00:18:29;;;;;;;4.82;2.55;;;19.30;99.90;;;;;;5010362;28;20120;-84
2023/09/28 00:20:58;;;;;;;3.33;2.78;;;19.30;99.90;;;;;;5030104;28;20144;-83
2023/09/28 00:23:23;;;;;;;4.00;2.63;;;19.30;99.90;;;;;;5011665;28;20025;-84
2023/09/28 00:25:49;;;;;;;5.32;2.65;;;19.30;99.90;;;;;;5028365;28;20036;-82
2023/09/28 00:28:15;;;;;;;5.43;2.58;;;19.30;99.90;;;;;;5005109;28;20057;-84
2023/09/28 00:30:42;;;;;;;3.53;2.63;;;19.20;99.90;;;;;;5011415;28;20022;-82
2023/09/28 00:33:10;;;;;;;6.43;2.45;;;19.20;99.90;;;;;;5009108;28;20033;-83
2023/09/28 00:35:35;;;;;;;6.20;2.25;;;19.30;99.90;;;;;;5028209;28;20521;-80
2023/09/28 00:38:01;;;;;;;4.13;2.78;;;19.30;99.90;;;;;;5028185;28;20112;-83
2023/09/28 00:40:31;;;;;;;4.63;2.72;;;19.20;99.90;;;;;;5010102;28;20110;-81
2023/09/28 00:42:58;;;;;;;4.53;2.53;;;19.20;99.90;;;;;;5008970;28;20076;-84
2023/09/28 00:45:24;;;;;;;3.88;2.67;;;19.20;99.90;;;;;;5027604;28;20112;-81
2023/09/28 00:48:02;;;;;;;3.38;2.63;;;19.20;99.90;;;;;;5043086;28;20056;-82
2023/09/28 00:50:31;;;;;;;6.47;2.83;;;19.20;99.90;;;;;;5022635;28;20052;-84
2023/09/28 00:53:02;;;;;;;3.92;2.60;;;19.20;99.90;;;;;;5028377;28;20042;-80
2023/09/28 00:55:30;;;;;;;5.53;2.90;;;19.20;99.90;;;;;;5028587;28;20025;-84
2023/09/28 00:58:04;;;;;;;7.22;2.92;;;19.10;99.90;;;;;;5029537;28;20052;-84
2023/09/28 01:00:31;;;;;;;6.95;2.40;;;19.00;99.90;;;;;;5029744;28;20059;-83
2023/09/28 01:02:59;;;;;;;4.18;2.70;;;19.10;99.90;;;;;;5009849;28;20051;-82
2023/09/28 01:05:26;;;;;;;3.80;2.50;;;19.00;99.90;;;;;;5004186;28;20140;-81
2023/09/28 01:07:52;;;;;;;5.28;3.00;;;19.00;99.90;;;;;;5028708;28;20029;-84
2023/09/28 01:10:24;;;;;;;6.30;2.83;;;19.00;99.90;;;;;;5026815;28;20036;-82
2023/09/28 01:12:50;;;;;;;4.53;2.67;;;19.00;99.90;;;;;;5008682;28;20048;-84
2023/09/28 01:15:19;;;;;;;4.22;2.28;;;18.90;99.90;;;;;;5009809;28;20033;-83
2023/09/28 01:17:47;;;;;;;4.60;2.55;;;18.90;99.90;;;;;;5027400;28;20051;-81
2023/09/28 01:20:36;;;;;;;3.92;2.55;;;19.00;99.90;;;;;;5026602;28;20539;-82
2023/09/28 01:23:04;;;;;;;5.68;2.92;;;19.00;99.90;;;;;;5008122;28;20112;-84
2023/09/28 01:25:30;;;;;;;5.60;2.95;;;19.00;99.90;;;;;;5002565;28;20299;-83
2023/09/28 01:27:56;;;;;;;5.55;2.90;;;18.90;99.90;;;;;;5027498;28;20033;-84
2023/09/28 01:30:23;;;;;;;2.78;2.20;;;18.90;99.90;;;;;;5027427;28;20017;-82
2023/09/28 01:32:52;;;;;;;5.30;2.90;;;18.90;99.90;;;;;;5027152;28;20173;-83
2023/09/28 01:35:18;;;;;;;4.80;2.50;;;18.90;99.90;;;;;;5026833;28;20408;-83
2023/09/28 01:38:09;;;;;;;5.03;3.05;;;18.90;99.90;;;;;;5008676;28;20021;-82
2023/09/28 01:40:40;;;;;;;6.07;2.60;;;18.90;99.90;;;;;;5026776;28;20026;-81
2023/09/28 01:43:07;;;;;;;3.88;2.83;;;18.90;99.90;;;;;;5026522;28;20148;-84
2023/09/28 01:45:33;;;;;;;3.45;2.47;;;18.90;99.90;;;;;;5009413;28;20033;-84
2023/09/28 01:48:03;;;;;;;3.80;2.42;;;18.90;99.90;;;;;;5008694;28;20148;-80
2023/09/28 01:50:29;;;;;;;4.30;2.70;;;18.90;99.90;;;;;;5009860;28;20029;-82
2023/09/28 01:52:57;;;;;;;4.32;2.45;;;18.80;99.90;;;;;;5026764;28;20867;-80
2023/09/28 01:55:23;;;;;;;4.75;2.60;;;18.90;99.90;;;;;;5009137;28;20525;-82
2023/09/28 01:57:51;;;;;;;7.22;2.88;;;18.90;99.90;;;;;;5011271;28;20132;-83
2023/09/28 02:00:20;;;;;;;6.10;2.70;;;18.80;99.90;;;;;;5007387;28;20162;-84
2023/09/28 02:02:49;;;;;;;4.97;2.70;;;18.90;99.90;;;;;;5009997;28;20025;-84
2023/09/28 02:05:22;;;;;;;3.20;2.60;;;18.90;99.90;;;;;;5026505;28;20029;-83
2023/09/28 02:07:48;;;;;;;3.95;2.40;;;18.90;99.90;;;;;;5020649;28;20437;-84
2023/09/28 02:10:14;;;;;;;4.70;2.83;;;18.80;99.90;;;;;;5009350;28;20087;-79
2023/09/28 02:12:43;;;;;;;3.85;2.53;;;18.80;99.90;;;;;;5025247;28;20064;-85
2023/09/28 02:15:10;;;;;;;3.63;2.65;;;18.80;99.90;;;;;;5007487;28;20029;-81
2023/09/28 02:17:38;;;;;;;6.28;2.67;;;18.80;99.90;;;;;;5026609;28;20041;-83
2023/09/28 02:20:09;;;;;;;4.68;2.95;;;18.80;99.90;;;;;;5026584;28;20933;-83
2023/09/28 02:22:44;;;;;;;5.43;2.80;;;18.70;99.90;;;;;;5025901;28;20226;-84
2023/09/28 02:25:19;;;;;;;3.72;2.40;;;18.70;99.90;;;;;;5008811;28;20030;-82
2023/09/28 02:27:46;;;;;;;3.95;2.67;;;18.70;99.90;;;;;;5009748;28;20029;-83
2023/09/28 02:30:17;;;;;;;8.80;2.60;;;18.70;99.90;;;;;;5008961;28;20029;-79
2023/09/28 02:32:46;;;;;;;5.32;2.65;;;18.70;99.90;;;;;;5020654;28;20053;-82
2023/09/28 02:35:16;;;;;;;3.47;2.65;;;18.70;99.90;;;;;;5008995;28;20037;-82
2023/09/28 02:37:46;;;;;;;5.78;2.80;;;18.70;99.90;;;;;;5010053;28;20132;-82
2023/09/28 02:40:19;;;;;;;5.75;2.70;;;18.60;99.90;;;;;;5012930;28;20043;-84
2023/09/28 02:42:44;;;;;;;3.42;2.65;;;18.60;99.90;;;;;;5029538;28;20099;-83
2023/09/28 02:45:13;;;;;;;7.05;2.78;;;18.60;99.90;;;;;;5013247;28;20442;-82
2023/09/28 02:47:46;;;;;;;4.97;2.58;;;18.50;99.90;;;;;;5031811;28;20044;-81
2023/09/28 02:50:13;;;;;;;3.95;2.72;;;18.50;99.90;;;;;;5015185;28;20148;-81
2023/09/28 02:52:40;;;;;;;3.33;2.47;;;18.40;99.90;;;;;;5013288;28;20063;-83
2023/09/28 02:55:10;;;;;;;5.53;2.92;;;18.40;99.90;;;;;;5006716;28;20033;-82
2023/09/28 02:57:36;;;;;;;3.95;2.75;;;18.30;99.90;;;;;;5025325;28;20033;-83
2023/09/28 03:00:11;;;;;;;3.45;2.53;;;18.30;99.90;;;;;;5030622;28;20033;-81
2023/09/28 03:02:37;;;;;;;4.65;2.92;;;18.30;99.90;;;;;;5012556;28;20044;-80
2023/09/28 03:05:04;;;;;;;4.80;2.67;;;18.30;99.90;;;;;;5011066;28;20029;-82
2023/09/28 03:07:29;;;;;;;3.65;2.72;;;18.30;99.90;;;;;;5029372;28;20063;-81
2023/09/28 03:09:55;;;;;;;9.40;3.05;;;18.20;99.90;;;;;;5030213;28;20061;-80
2023/09/28 03:12:23;;;;;;;7.13;3.22;;;18.10;99.90;;;;;;5007210;28;20330;-81
2023/09/28 03:14:48;;;;;;;9.55;3.10;;;18.00;99.90;;;;;;5011986;28;20044;-79
2023/09/28 03:17:14;;;;;;;3.65;2.60;;;18.00;99.90;;;;;;5006482;28;20033;-79
2023/09/28 03:19:41;;;;;;;8.10;3.10;;;18.00;99.90;;;;;;5006582;28;20033;-82
2023/09/28 03:22:07;;;;;;;7.45;3.45;;;17.90;99.90;;;;;;5028999;28;20149;-81
2023/09/28 03:24:33;;;;;;;4.78;3.25;;;17.90;99.90;;;;;;5012777;28;20103;-78
2023/09/28 03:26:59;;;;;;;7.35;3.42;;;17.90;99.90;;;;;;5031497;28;20029;-79
2023/09/28 03:29:24;;;;;;;5.50;2.88;;;17.90;99.90;;;;;;5017613;28;20385;-80
2023/09/28 03:31:52;;;;;;;4.20;2.63;;;17.90;99.90;;;;;;5030274;28;20034;-78
2023/09/28 03:34:20;;;;;;;3.35;2.15;;;17.90;99.90;;;;;;5029069;28;20091;-79
2023/09/28 03:36:47;;;;;;;10.13;2.85;;;17.90;99.90;;;;;;5024994;28;20045;-79
2023/09/28 03:39:13;;;;;;;6.30;2.50;;;17.80;99.90;;;;;;5013555;28;20034;-81
2023/09/28 03:41:39;;;;;;;4.88;3.00;;;17.80;99.90;;;;;;5012048;28;20033;-79
2023/09/28 03:44:05;;;;;;;4.15;3.47;;;17.80;99.90;;;;;;5007248;28;20386;-80
2023/09/28 03:46:30;;;;;;;4.70;3.30;;;17.80;99.90;;;;;;5030970;28;20088;-78
2023/09/28 03:48:56;;;;;;;5.03;3.13;;;17.70;99.90;;;;;;5031106;28;20053;-80
2023/09/28 03:51:21;;;;;;;3.75;2.90;;;17.70;99.90;;;;;;5017110;28;20080;-77
2023/09/28 03:53:47;;;;;;;5.30;2.90;;;17.70;99.90;;;;;;5029211;28;20029;-78
2023/09/28 03:56:13;;;;;;;6.05;2.88;;;17.60;99.90;;;;;;5043393;28;20025;-77
2023/09/28 03:58:39;;;;;;;6.28;3.00;;;17.60;99.90;;;;;;5019363;28;20053;-79
2023/09/28 04:01:07;;;;;;;5.07;3.17;;;17.50;99.90;;;;;;5042421;28;20354;-76
2023/09/28 04:03:34;;;;;;;4.15;3.05;;;17.50;99.90;;;;;;5029136;28;20042;-78
2023/09/28 04:05:59;;;;;;;4.40;2.95;;;17.40;99.90;;;;;;5053882;28;20025;-75
2023/09/28 04:08:27;;;;;;;5.88;3.17;;;17.40;99.90;;;;;;5045901;28;20029;-76
2023/09/28 04:10:54;;;;;;;3.30;2.95;;;17.30;99.90;;;;;;5032906;28;20029;-76
2023/09/28 04:13:20;;;;;;;4.88;3.05;;;17.30;99.90;;;;;;5054132;28;20029;-75
2023/09/28 04:15:48;;;;;;;7.75;3.65;;;17.20;99.90;;;;;;5035235;28;20025;-75
2023/09/28 04:18:14;;;;;;;4.90;3.40;;;17.20;99.90;;;;;;5054245;28;20029;-74
2023/09/28 04:20:43;;;;;;;4.68;3.45;;;17.10;99.90;;;;;;5055099;28;20043;-74
2023/09/28 04:23:09;;;;;;;11.45;3.85;;;17.10;99.90;;;;;;5037638;28;20057;-76
2023/09/28 04:25:35;;;;;;;5.95;4.00;;;17.10;99.90;;;;;;5036840;28;20056;-75
2023/09/28 04:28:01;;;;;;;10.35;4.10;;;17.00;99.90;;;;;;5037305;28;20029;-74
2023/09/28 04:30:27;;;;;;;7.30;3.53;;;17.00;99.90;;;;;;5053953;28;20109;-75
2023/09/28 04:32:54;;;;;;;5.35;3.28;;;17.00;99.90;;;;;;5036163;28;20021;-75
2023/09/28 04:35:22;;;;;;;6.80;4.40;;;16.90;99.90;;;;;;5053988;28;20045;-75
2023/09/28 04:37:48;;;;;;;9.65;5.68;;;16.90;99.90;;;;;;5053814;28;20052;-74
2023/09/28 04:40:13;;;;;;;7.07;3.80;;;17.00;99.90;;;;;;5049800;28;20022;-75
2023/09/28 04:42:40;;;;;;;7.95;3.90;;;16.90;99.90;;;;;;5053447;28;20089;-74
2023/09/28 04:45:09;;;;;;;5.85;3.53;;;16.90;99.90;;;;;;5033504;28;20027;-75
2023/09/28 04:47:36;;;;;;;6.47;4.70;;;16.90;99.90;;;;;;5053557;28;20022;-75
2023/09/28 04:50:02;;;;;;;6.85;4.70;;;16.80;99.90;;;;;;5035843;28;20029;-76
2023/09/28 04:52:29;;;;;;;5.25;4.20;;;16.90;99.90;;;;;;5036014;28;20013;-75
2023/09/28 04:54:55;;;;;;;9.02;4.70;;;16.80;99.90;;;;;;5052528;28;20021;-75
2023/09/28 04:57:25;;;;;;;6.15;3.63;;;16.80;99.90;;;;;;5033979;28;20037;-75
2023/09/28 04:59:51;;;;;;;8.35;4.30;;;16.70;99.90;;;;;;5052881;28;20029;-74
2023/09/28 05:02:17;;;;;;;8.07;3.85;;;16.70;99.90;;;;;;5032904;28;20041;-75
2023/09/28 05:04:45;;;;;;;9.30;6.15;;;16.70;99.90;;;;;;5052928;28;20053;-74
2023/09/28 05:07:10;;;;;;;5.45;3.80;;;16.70;99.90;;;;;;5034234;28;20017;-74
2023/09/28 05:09:38;;;;;;;8.18;5.30;;;16.70;99.90;;;;;;5052778;28;20113;-75
2023/09/28 05:12:04;;;;;;;5.57;4.45;;;16.60;99.90;;;;;;5029716;28;20068;-75
2023/09/28 05:14:30;;;;;;;10.18;5.95;;;16.60;99.90;;;;;;5047387;28;20025;-75
2023/09/28 05:16:58;;;;;;;11.55;5.70;;;16.60;99.90;;;;;;5052805;28;20032;-75
2023/09/28 05:19:25;;;;;;;8.20;4.13;;;16.60;99.90;;;;;;5029768;28;20018;-75
2023/09/28 05:21:53;;;;;;;6.57;3.95;;;16.60;99.90;;;;;;5034864;28;20025;-74
2023/09/28 05:24:18;;;;;;;5.72;4.07;;;16.50;99.90;;;;;;5052795;28;20042;-75
2023/09/28 05:26:44;;;;;;;7.82;4.55;;;16.50;99.90;;;;;;5051024;28;20021;-74
2023/09/28 05:29:10;;;;;;;8.88;4.50;;;16.40;99.90;;;;;;5053023;28;20056;-75
2023/09/28 05:31:38;;;;;;;8.60;5.38;;;16.40;99.90;;;;;;5035108;28;20025;-74
2023/09/28 05:34:06;;;;;;;7.43;5.30;;;16.40;99.90;;;;;;5030316;28;20120;-74
2023/09/28 05:36:31;;;;;;;10.27;5.88;;;16.40;99.90;;;;;;5052296;28;20044;-74
2023/09/28 05:38:59;;;;;;;10.57;4.95;;;16.40;99.90;;;;;;5034647;28;20029;-75
2023/09/28 05:41:25;;;;;;;9.88;4.47;;;16.40;99.90;;;;;;5052201;28;20030;-74
2023/09/28 05:43:50;;;;;;;7.15;5.07;;;16.40;99.90;;;;;;5028137;28;20040;-75
2023/09/28 05:46:18;;;;;;;8.23;5.28;;;16.40;99.90;;;;;;5033552;28;20108;-75
2023/09/28 05:48:44;;;;;;;9.45;4.50;;;16.40;99.90;;;;;;5050997;28;20033;-74
2023/09/28 05:51:11;;;;;;;17.02;4.53;;;16.40;99.90;;;;;;5028649;28;20130;-74
2023/09/28 05:53:40;;;;;;;5.38;4.22;;;16.40;99.90;;;;;;5050560;28;20037;-74
2023/09/28 05:56:05;;;;;;;12.57;5.13;;;16.40;99.90;;;;;;5033494;28;20104;-74
2023/09/28 05:58:33;;;;;;;12.10;6.60;;;16.40;99.90;;;;;;5052108;28;20255;-75
2023/09/28 06:01:06;;;;;;;10.60;4.93;;;16.40;99.90;;;;;;5051617;28;20037;-74
2023/09/28 06:03:35;;;;;;;8.50;5.20;;;16.40;99.90;;;;;;5045322;28;20093;-75
2023/09/28 06:06:14;;;;;;;10.50;4.97;;;16.40;99.90;;;;;;5052477;28;20028;-74
2023/09/28 06:08:40;;;;;;;11.93;5.63;;;16.40;99.90;;;;;;5045884;28;21374;-74
2023/09/28 06:11:06;;;;;;;11.57;6.93;;;16.40;99.90;;;;;;5051533;28;20032;-75
2023/09/28 06:13:31;;;;;;;11.00;6.15;;;16.40;99.90;;;;;;5054913;28;20013;-75
2023/09/28 06:16:00;;;;;;;13.77;6.63;;;16.40;99.90;;;;;;5055533;28;20033;-74
2023/09/28 06:18:28;;;;;;;13.75;6.60;;;16.50;99.90;;;;;;5035274;28;20018;-75
2023/09/28 06:20:54;;;;;;;12.52;5.78;;;16.50;99.90;;;;;;5038341;28;20556;-75
2023/09/28 06:23:20;;;;;;;9.32;5.30;;;16.60;99.90;;;;;;5034308;28;20124;-74
2023/09/28 06:25:45;;;;;;;16.05;7.78;;;16.60;99.90;;;;;;5036770;28;20103;-74
2023/09/28 06:28:11;;;;;;;15.15;8.10;;;16.60;99.90;;;;;;5035479;28;20094;-75
2023/09/28 06:30:37;;;;;;;23.08;7.45;;;16.60;99.90;;;;;;5056364;28;20525;-74
2023/09/28 06:33:02;;;;;;;15.60;6.32;;;16.70;99.90;;;;;;5056274;28;20087;-74
2023/09/28 06:35:28;;;;;;;15.35;6.07;;;16.60;99.90;;;;;;5055250;28;20041;-74
2023/09/28 06:38:00;;;;;;;21.38;7.65;;;16.70;99.90;;;;;;5037451;28;20102;-74
2023/09/28 06:40:26;;;;;;;30.08;9.32;;;16.70;99.90;;;;;;5038161;28;20093;-74
2023/09/28 06:42:52;;;;;;;37.15;9.77;;;16.70;99.90;;;;;;5055100;28;20040;-74
2023/09/28 06:45:18;;;;;;;26.02;9.20;;;16.70;99.90;;;;;;5055358;28;20187;-75
2023/09/28 06:47:44;;;;;;;23.88;7.97;;;16.70;99.90;;;;;;5036297;28;20073;-74
2023/09/28 06:50:13;;;;;;;14.13;6.20;;;16.80;99.90;;;;;;5055032;28;20032;-74
2023/09/28 06:52:39;;;;;;;17.65;5.85;;;16.80;99.90;;;;;;5034814;28;20009;-74
2023/09/28 06:55:05;;;;;;;11.15;5.68;;;16.90;99.90;;;;;;5035824;28;20080;-75
2023/09/28 06:57:30;;;;;;;9.13;5.72;;;16.90;99.90;;;;;;5034488;28;20044;-75
2023/09/28 06:59:56;;;;;;;13.93;5.30;;;17.00;99.90;;;;;;5034629;28;20096;-74
2023/09/28 07:02:22;;;;;;;8.35;4.78;;;17.00;99.90;;;;;;5054495;28;20041;-74
2023/09/28 07:04:48;;;;;;;8.93;4.95;;;17.10;99.90;;;;;;5055330;28;20029;-74
2023/09/28 07:07:17;;;;;;;9.52;5.32;;;17.10;99.90;;;;;;5038489;28;20033;-75
2023/09/28 07:09:44;;;;;;;8.38;5.05;;;17.20;99.90;;;;;;5050802;28;20098;-75
2023/09/28 07:12:11;;;;;;;10.15;5.25;;;17.20;99.90;;;;;;5069419;28;20053;-75
2023/09/28 07:14:37;;;;;;;10.00;5.10;;;17.30;99.90;;;;;;5031841;28;20134;-77
2023/09/28 07:17:05;;;;;;;9.77;4.45;;;17.40;99.90;;;;;;5030580;28;20013;-74
2023/09/28 07:19:34;;;;;;;9.88;4.60;;;17.40;99.90;;;;;;5038502;28;20377;-80
2023/09/28 07:22:01;;;;;;;5.68;3.90;;;17.40;99.90;;;;;;5038812;28;20056;-76
2023/09/28 07:24:29;;;;;;;11.88;4.63;;;17.50;99.90;;;;;;5014555;28;20065;-81
2023/09/28 07:26:57;;;;;;;10.77;5.43;;;17.50;99.90;;;;;;5034493;28;20101;-80
2023/09/28 07:29:25;;;;;;;11.80;4.80;;;17.60;99.90;;;;;;5025092;28;20042;-81
2023/09/28 07:31:51;;;;;;;9.10;4.47;;;17.60;99.90;;;;;;5005705;28;20037;-80
2023/09/28 07:34:16;;;;;;;9.35;4.28;;;17.60;99.90;;;;;;5011193;28;20581;-81
2023/09/28 07:36:42;;;;;;;10.07;4.25;;;17.70;99.90;;;;;;5028572;28;20033;-81
2023/09/28 07:39:07;;;;;;;10.65;4.65;;;17.80;99.90;;;;;;5011235;28;20124;-84
2023/09/28 07:41:33;;;;;;;5.82;3.30;;;17.80;99.90;;;;;;5006102;28;20026;-79
2023/09/28 07:44:01;;;;;;;7.13;3.97;;;17.90;99.90;;;;;;5022463;28;20076;-84
2023/09/28 07:46:27;;;;;;;9.82;2.83;;;17.90;99.90;;;;;;5006489;28;20037;-82
2023/09/28 07:48:56;;;;;;;6.28;3.13;;;18.00;99.90;;;;;;5005474;28;20029;-82
2023/09/28 07:51:22;;;;;;;8.95;3.90;;;18.20;99.90;;;;;;5010789;28;20039;-85
2023/09/28 07:53:47;;;;;;;4.80;2.90;;;18.30;99.90;;;;;;5007829;28;20465;-83
2023/09/28 07:56:13;;;;;;;7.78;3.13;;;18.30;99.90;;;;;;5012708;28;20021;-84
2023/09/28 07:58:39;;;;;;;9.75;3.65;;;18.40;99.90;;;;;;5013127;28;20449;-83
2023/09/28 08:01:04;;;;;;;10.32;3.13;;;18.50;99.90;;;;;;5011266;28;20053;-85
2023/09/28 08:03:30;;;;;;;4.30;2.67;;;18.50;99.90;;;;;;5012641;28;20029;-85
2023/09/28 08:05:56;;;;;;;8.05;3.45;;;18.70;99.90;;;;;;5030055;28;20121;-84
2023/09/28 08:08:24;;;;;;;7.03;3.17;;;18.80;99.90;;;;;;5006998;28;20022;-85
2023/09/28 08:10:49;;;;;;;9.65;3.10;;;18.90;99.90;;;;;;5029905;28;20080;-82
2023/09/28 08:13:15;;;;;;;7.57;3.60;;;18.90;99.90;;;;;;5009188;28;20044;-84
2023/09/28 08:15:42;;;;;;;9.32;2.90;;;19.00;99.90;;;;;;5009195;28;20029;-82
2023/09/28 08:18:09;;;;;;;11.50;3.33;;;19.00;99.90;;;;;;5012502;28;20122;-82
2023/09/28 08:20:37;;;;;;;14.95;3.60;;;19.10;99.90;;;;;;5009939;28;20033;-83
2023/09/28 08:23:06;;;;;;;10.23;3.05;;;19.10;99.90;;;;;;5007515;28;20112;-83
2023/09/28 08:25:33;;;;;;;7.93;2.88;;;19.20;99.90;;;;;;5010707;28;20034;-80
2023/09/28 08:27:59;;;;;;;6.90;3.38;;;19.20;99.90;;;;;;5023719;28;20029;-82
2023/09/28 08:30:24;;;;;;;10.55;4.35;;;19.30;99.90;;;;;;5028510;28;20029;-85
2023/09/28 08:32:52;;;;;;;8.88;3.25;;;19.30;99.90;;;;;;5029098;28;20120;-83
2023/09/28 08:35:23;;;;;;;7.72;3.78;;;19.40;99.90;;;;;;5028286;28;20091;-85
2023/09/28 08:37:49;;;;;;;5.25;3.05;;;19.40;99.90;;;;;;5009553;28;20025;-83
2023/09/28 08:40:14;;;;;;;9.98;3.75;;;19.40;99.90;;;;;;5028728;28;20033;-81
2023/09/28 08:42:43;;;;;;;8.10;3.20;;;19.50;99.90;;;;;;5005276;28;20476;-84
2023/09/28 08:45:12;;;;;;;5.50;3.38;;;19.50;99.90;;;;;;5020272;28;20041;-85
2023/09/28 08:47:49;;;;;;;8.68;3.63;;;19.60;99.90;;;;;;5010556;28;20026;-84
2023/09/28 08:50:20;;;;;;;14.20;3.92;;;19.60;99.90;;;;;;5028370;28;20041;-84
2023/09/28 08:52:50;;;;;;;9.35;3.78;;;19.70;99.90;;;;;;5027289;28;20105;-84
2023/09/28 08:55:20;;;;;;;15.60;4.22;;;19.80;99.90;;;;;;5027005;28;20044;-86
2023/09/28 08:57:51;;;;;;;8.85;3.80;;;19.90;99.90;;;;;;5004506;28;20037;-84
2023/09/28 09:00:23;;;;;;;7.88;3.53;;;19.90;99.90;;;;;;5027048;28;20037;-85
2023/09/28 09:02:52;;;;;;;5.65;3.17;;;20.00;99.90;;;;;;5009560;28;20033;-85
2023/09/28 09:05:20;;;;;;;6.45;2.92;;;20.10;99.90;;;;;;5004445;28;20037;-81
2023/09/28 09:07:47;;;;;;;12.05;3.70;;;20.10;99.90;;;;;;5021650;28;20025;-84
2023/09/28 09:10:18;;;;;;;14.70;3.22;;;20.20;99.90;;;;;;5010448;28;20026;-80
2023/09/28 09:12:43;;;;;;;9.50;3.17;;;20.20;99.90;;;;;;5010135;28;20030;-83
2023/09/28 09:15:10;;;;;;;11.95;3.60;;;20.20;99.90;;;;;;5027578;28;20029;-82
2023/09/28 09:17:37;;;;;;;9.60;3.70;;;20.10;99.90;;;;;;5008337;28;20040;-84
2023/09/28 09:20:08;;;;;;;7.75;3.20;;;20.10;99.90;;;;;;5026550;28;20033;-84
2023/09/28 09:22:33;;;;;;;15.30;3.15;;;20.10;99.90;;;;;;5005395;28;20045;-83
2023/09/28 09:24:59;;;;;;;16.40;3.75;;;20.10;99.90;;;;;;5027785;28;20803;-87
2023/09/28 09:27:32;;;;;;;11.32;3.30;;;20.20;99.90;;;;;;5004746;28;20021;-83
2023/09/28 09:30:05;;;;;;;11.40;3.80;;;20.30;99.90;;;;;;5027634;28;20037;-81
2023/09/28 09:32:34;;;;;;;16.63;4.13;;;20.30;99.90;;;;;;5009289;28;20026;-81
2023/09/28 09:35:06;;;;;;;8.90;3.67;;;20.20;99.90;;;;;;5009322;28;20034;-84
2023/09/28 09:37:31;;;;;;;20.45;4.20;;;19.80;99.90;;;;;;5027137;28;20041;-86
2023/09/28 09:40:13;;;;;;;14.55;4.15;;;19.40;99.90;;;;;;5020769;28;20096;-86
2023/09/28 09:42:41;;;;;;;12.75;4.22;;;19.20;99.90;;;;;;5029397;28;20029;-82
2023/09/28 09:45:08;;;;;;;10.73;4.20;;;19.10;99.90;;;;;;5010260;28;20083;-87
2023/09/28 09:47:50;;;;;;;11.13;3.92;;;19.10;99.90;;;;;;5026430;28;20116;-85
2023/09/28 09:50:17;;;;;;;9.90;3.90;;;19.10;99.90;;;;;;5026851;28;20052;-84
2023/09/28 09:52:46;;;;;;;15.25;5.30;;;19.10;99.90;;;;;;5026936;28;20056;-81
2023/09/28 09:55:15;;;;;;;9.90;4.38;;;19.20;99.90;;;;;;5026118;28;20029;-88
2023/09/28 09:57:46;;;;;;;11.65;4.97;;;19.30;99.90;;;;;;5026796;28;20065;-81
2023/09/28 10:00:16;;;;;;;14.50;5.45;;;19.40;99.90;;;;;;5027041;28;20060;-84
2023/09/28 10:02:43;;;;;;;10.27;4.97;;;19.60;99.90;;;;;;5003212;28;20068;-85
2023/09/28 10:05:10;;;;;;;11.48;4.78;;;19.70;99.90;;;;;;5041399;28;20037;-87
2023/09/28 10:07:42;;;;;;;11.38;4.13;;;19.80;99.90;;;;;;5027392;28;20025;-82
2023/09/28 10:10:10;;;;;;;;;;;19.90;99.90;;;;;;5021475;28;20350;-85
2023/09/28 10:12:37;;;;;;;14.32;3.97;;;19.90;99.90;;;;;;5043056;28;19955;-82
2023/09/28 10:15:06;;;;;;;8.65;3.50;;;20.00;99.90;;;;;;5041989;28;20025;-81
2023/09/28 10:17:33;;;;;;;11.93;4.10;;;20.20;99.90;;;;;;5008364;28;20508;-84
2023/09/28 10:20:02;;;;;;;7.22;3.63;;;20.20;99.90;;;;;;5026167;28;20044;-86
2023/09/28 10:22:31;;;;;;;10.55;4.10;;;20.40;99.90;;;;;;5011620;28;21660;-86
2023/09/28 10:24:57;;;;;;;14.65;4.22;;;20.40;99.90;;;;;;5002817;28;20045;-85
2023/09/28 10:27:24;;;;;;;19.02;4.75;;;20.40;99.90;;;;;;5026367;28;20087;-85
2023/09/28 10:30:11;;;;;;;12.63;3.78;;;20.50;99.90;;;;;;5027340;28;20025;-85
2023/09/28 10:32:41;;;;;;;13.23;3.97;;;20.50;99.90;;;;;;5004565;28;20128;-88
2023/09/28 10:35:29;;;;;;;11.20;3.88;;;20.70;99.90;;;;;;5012374;28;20029;-87
2023/09/28 10:38:19;;;;;;;9.20;4.25;;;20.80;99.90;;;;;;5003346;28;20509;-90
2023/09/28 10:41:10;;;;;;;10.68;3.70;;;21.00;99.90;;;;;;5004391;28;20037;-86
2023/09/28 10:43:40;;;;;;;11.98;3.97;;;21.00;99.90;;;;;;5027851;28;20116;-86
2023/09/28 10:46:07;;;;;;;7.53;3.05;;;21.00;99.90;;;;;;5027429;28;20025;-84
2023/09/28 10:48:44;;;;;;;7.03;2.88;;;21.00;99.90;;;;;;5026453;28;20068;-87
2023/09/28 10:51:15;;;;;;;9.38;3.60;;;21.00;99.90;;;;;;5025865;28;20045;-85
2023/09/28 10:53:42;;;;;;;7.63;3.50;;;21.00;99.90;;;;;;5001843;28;20021;-86
2023/09/28 10:56:11;;;;;;;9.90;3.25;;;21.00;99.90;;;;;;5025139;28;20041;-86
2023/09/28 10:58:43;;;;;;;10.35;3.60;;;20.90;99.90;;;;;;5027228;28;20037;-86
2023/09/28 11:01:08;;;;;;;;;;;21.00;99.90;;;;;;5023638;28;20025;-86
2023/09/28 11:03:35;;;;;;;7.35;3.17;;;21.10;99.90;;;;;;5012238;28;19947;-81
2023/09/28 11:06:04;;;;;;;7.20;3.17;;;21.20;99.90;;;;;;5011589;28;20135;-84
2023/09/28 11:08:36;;;;;;;6.55;3.13;;;21.20;99.90;;;;;;5028903;28;20113;-89
2023/09/28 11:11:03;;;;;;;8.95;3.13;;;21.30;99.90;;;;;;5044799;28;20036;-83
2023/09/28 11:13:29;;;;;;;7.50;3.10;;;21.40;99.90;;;;;;5029055;28;20018;-84
2023/09/28 11:15:55;;;;;;;10.85;3.17;;;21.40;99.90;;;;;;5029046;28;20065;-85
2023/09/28 11:18:24;;;;;;;10.50;2.70;;;21.50;99.90;;;;;;5006154;28;20033;-86
2023/09/28 11:20:54;;;;;;;6.30;2.80;;;21.50;99.90;;;;;;5029081;28;20111;-83
2023/09/28 11:23:20;;;;;;;12.40;3.88;;;21.40;99.90;;;;;;5028985;28;20029;-83
2023/09/28 11:25:47;;;;;;;7.75;3.05;;;21.50;99.90;;;;;;5027736;28;20068;-88
2023/09/28 11:28:19;;;;;;;9.82;3.38;;;21.60;99.90;;;;;;5028557;28;20163;-90
2023/09/28 11:30:44;;;;;;;9.53;3.03;;;21.60;99.90;;;;;;5028762;28;20022;-83
2023/09/28 11:33:11;;;;;;;9.95;3.22;;;21.60;99.90;;;;;;5030016;28;20040;-85
2023/09/28 11:35:38;;;;;;;11.30;3.05;;;21.60;99.90;;;;;;5028384;28;20056;-85
2023/09/28 11:38:09;;;;;;;6.90;2.97;;;21.60;99.90;;;;;;5005617;28;20030;-89
2023/09/28 11:40:37;;;;;;;5.90;2.47;;;21.60;99.90;;;;;;5030757;28;20037;-85
2023/09/28 11:43:03;;;;;;;4.32;2.58;;;21.60;99.90;;;;;;5008047;28;20045;-83
2023/09/28 11:45:31;;;;;;;7.07;2.65;;;21.70;99.90;;;;;;5014447;28;20041;-89
2023/09/28 11:47:57;;;;;;;7.05;3.17;;;21.80;99.90;;;;;;5028625;28;20029;-88
2023/09/28 11:50:25;;;;;;;8.40;3.08;;;21.80;99.90;;;;;;5029059;28;20022;-86
2023/09/28 11:52:52;;;;;;;6.80;2.80;;;21.90;99.90;;;;;;5005363;28;20075;-84
2023/09/28 11:55:18;;;;;;;5.55;2.92;;;21.90;99.90;;;;;;5004982;28;20057;-88
2023/09/28 11:57:46;;;;;;;11.52;2.88;;;21.90;99.90;;;;;;5028712;28;20049;-87
2023/09/28 12:00:18;;;;;;;8.40;2.85;;;22.00;99.90;;;;;;5010084;28;20526;-86
2023/09/28 12:02:45;;;;;;;10.10;2.80;;;22.10;99.90;;;;;;5010323;28;20469;-84
2023/09/28 12:05:11;;;;;;;10.13;2.83;;;22.30;99.90;;;;;;5028178;28;20033;-88
2023/09/28 12:07:37;;;;;;;8.85;3.30;;;22.40;99.90;;;;;;5029433;28;20250;-83
2023/09/28 12:10:05;;;;;;;8.00;2.78;;;22.40;99.90;;;;;;5010435;28;20033;-88
2023/09/28 12:12:31;;;;;;;8.35;3.05;;;22.40;99.90;;;;;;5027569;28;20068;-85
2023/09/28 12:14:57;;;;;;;9.60;2.90;;;22.30;99.90;;;;;;5020911;28;20029;-87
2023/09/28 12:17:25;;;;;;;14.48;3.05;;;22.30;99.90;;;;;;5027473;28;20038;-87
2023/09/28 12:19:50;;;;;;;9.20;2.90;;;22.30;99.90;;;;;;5027314;28;20060;-88
2023/09/28 12:22:18;;;;;;;11.57;3.50;;;22.30;99.90;;;;;;5027178;28;20041;-83
2023/09/28 12:24:44;;;;;;;8.88;2.92;;;22.30;99.90;;;;;;5004767;28;20342;-87
2023/09/28 12:27:10;;;;;;;6.55;2.35;;;22.40;99.90;;;;;;5028362;28;20029;-85
2023/09/28 12:29:35;;;;;;;9.63;3.10;;;22.50;99.90;;;;;;5002671;28;20029;-87
2023/09/28 12:32:01;;;;;;;7.35;3.13;;;22.50;99.90;;;;;;5027012;28;20452;-87
2023/09/28 12:34:31;;;;;;;8.88;2.97;;;22.50;99.90;;;;;;5003459;28;20033;-89
2023/09/28 12:36:59;;;;;;;6.03;2.47;;;22.40;99.90;;;;;;5003533;28;20041;-89
2023/09/28 12:39:25;;;;;;;7.95;2.90;;;22.40;99.90;;;;;;5026821;28;20043;-85
2023/09/28 12:41:58;;;;;;;7.57;2.80;;;22.40;99.90;;;;;;5026625;28;20026;-85
2023/09/28 12:44:28;;;;;;;8.50;2.70;;;22.40;99.90;;;;;;5026797;28;20064;-81
2023/09/28 12:46:53;;;;;;;8.50;3.00;;;22.40;99.90;;;;;;5021104;28;20029;-85
2023/09/28 12:49:21;;;;;;;15.07;2.80;;;22.40;99.90;;;;;;5026710;28;20045;-88